Time;durP1;ratioP1;P1;durP2;ratioP2;P2;SDS_P1;SDS_P2;PMS_P1;PMS_P2;Temp;Humidity;BMP_temperature;BMP_pressure;BME280_temperature;BME280_humidity;BME280_pressure;Samples;Min_cycle;Max_cycle;Signal;HPM_P1;HPM_P2
2023/09/02 00:00:28;;;;;;;0.50;0.43;;;24.90;60.80;;;;;;6338694;22;20188;-88
2023/09/02 00:02:57;;;;;;;0.30;0.30;;;24.80;61.00;;;;;;6356673;22;20264;-88
2023/09/02 00:05:26;;;;;;;1.95;0.60;;;24.80;61.30;;;;;;6356149;22;20191;-86
2023/09/02 00:07:54;;;;;;;2.08;0.30;;;24.80;61.40;;;;;;6351203;22;20164;-86
2023/09/02 00:10:23;;;;;;;0.20;0.20;;;24.80;61.60;;;;;;6352563;22;20168;-86
2023/09/02 00:12:52;;;;;;;1.50;0.52;;;24.70;61.60;;;;;;6350015;22;20168;-85
2023/09/02 00:15:22;;;;;;;0.30;0.30;;;24.70;61.60;;;;;;6343959;22;20195;-88
2023/09/02 00:17:50;;;;;;;1.35;1.17;;;24.70;61.60;;;;;;6336949;22;20213;-86
2023/09/02 00:20:20;;;;;;;0.45;0.45;;;24.60;61.90;;;;;;6337848;22;20192;-89
2023/09/02 00:22:49;;;;;;;0.20;0.20;;;24.60;61.90;;;;;;6338421;22;20267;-88
2023/09/02 00:25:17;;;;;;;1.65;0.98;;;24.60;61.90;;;;;;6339585;22;20240;-87
2023/09/02 00:27:46;;;;;;;0.30;0.30;;;24.60;61.90;;;;;;6339496;22;20605;-86
2023/09/02 00:30:14;;;;;;;0.40;0.40;;;24.60;62.00;;;;;;6339149;22;20224;-88
2023/09/02 00:32:45;;;;;;;0.25;0.25;;;24.60;62.00;;;;;;6338553;22;20168;-87
2023/09/02 00:35:13;;;;;;;0.38;0.38;;;24.60;62.30;;;;;;6339326;22;20655;-84
2023/09/02 00:37:42;;;;;;;0.40;0.40;;;24.60;62.30;;;;;;6337433;22;20165;-86
2023/09/02 00:40:16;;;;;;;0.45;0.45;;;24.50;62.30;;;;;;6338354;22;20243;-86
2023/09/02 00:42:45;;;;;;;0.50;0.50;;;24.50;62.50;;;;;;6338449;22;20535;-87
2023/09/02 00:45:15;;;;;;;1.05;0.45;;;24.50;62.50;;;;;;6337927;22;20172;-86
2023/09/02 00:47:46;;;;;;;0.57;0.47;;;24.50;62.70;;;;;;6338560;22;20157;-88
2023/09/02 00:50:15;;;;;;;6.32;0.90;;;24.50;63.00;;;;;;6338806;22;20221;-88
2023/09/02 00:52:44;;;;;;;0.20;0.20;;;24.40;63.10;;;;;;6338057;22;20168;-86
2023/09/02 00:55:13;;;;;;;0.73;0.65;;;24.40;63.30;;;;;;6338704;22;20528;-87
2023/09/02 00:57:42;;;;;;;0.40;0.40;;;24.40;63.50;;;;;;6338630;22;20167;-88
2023/09/02 01:00:13;;;;;;;0.40;0.40;;;24.40;63.50;;;;;;6339334;22;20164;-87
2023/09/02 01:02:43;;;;;;;0.82;0.70;;;24.40;63.80;;;;;;6337842;22;20245;-86
2023/09/02 01:05:14;;;;;;;0.40;0.40;;;24.30;64.10;;;;;;6338391;22;20163;-87
2023/09/02 01:07:44;;;;;;;0.65;0.45;;;24.30;64.20;;;;;;6338283;22;20243;-88
2023/09/02 01:10:13;;;;;;;0.50;0.50;;;24.30;64.20;;;;;;6338850;22;20172;-87
2023/09/02 01:12:42;;;;;;;0.32;0.32;;;24.30;64.30;;;;;;6338117;22;20225;-86
2023/09/02 01:15:11;;;;;;;0.57;0.57;;;24.30;64.20;;;;;;6338556;22;20195;-86
2023/09/02 01:17:40;;;;;;;1.00;0.90;;;24.20;64.20;;;;;;6338127;22;20161;-87
2023/09/02 01:20:15;;;;;;;0.30;0.30;;;24.20;64.20;;;;;;6340168;22;20164;-86
2023/09/02 01:23:03;;;;;;;0.20;0.20;;;24.20;64.20;;;;;;6337934;22;20161;-88
2023/09/02 01:25:52;;;;;;;0.30;0.30;;;24.20;64.50;;;;;;6340348;22;20153;-89
2023/09/02 01:28:28;;;;;;;0.38;0.38;;;24.10;64.60;;;;;;6340695;22;20156;-86
2023/09/02 01:30:58;;;;;;;0.57;0.57;;;24.10;64.50;;;;;;6338495;22;20163;-86
2023/09/02 01:33:28;;;;;;;0.40;0.40;;;24.10;64.40;;;;;;6340728;22;20172;-87
2023/09/02 01:35:59;;;;;;;0.30;0.30;;;24.10;64.40;;;;;;6339937;22;20168;-87
2023/09/02 01:38:29;;;;;;;0.25;0.25;;;24.10;64.30;;;;;;6340751;22;20210;-88
2023/09/02 01:40:58;;;;;;;0.98;0.63;;;24.10;64.40;;;;;;6339455;22;20165;-85
2023/09/02 01:43:34;;;;;;;0.52;0.52;;;24.00;64.30;;;;;;6342388;22;20187;-87
2023/09/02 01:46:02;;;;;;;0.38;0.35;;;24.00;64.40;;;;;;6339004;22;20167;-85
2023/09/02 01:48:32;;;;;;;0.35;0.35;;;24.00;64.40;;;;;;6338258;22;20161;-86
2023/09/02 01:51:02;;;;;;;4.15;1.73;;;24.00;64.30;;;;;;6339158;22;20296;-86
2023/09/02 01:53:31;;;;;;;0.30;0.30;;;24.00;64.10;;;;;;6340928;22;20165;-87
2023/09/02 01:56:00;;;;;;;0.52;0.38;;;24.00;64.00;;;;;;6338966;22;20165;-86
2023/09/02 01:58:30;;;;;;;0.20;0.20;;;24.00;64.00;;;;;;6340421;22;20231;-89
2023/09/02 02:00:59;;;;;;;0.30;0.30;;;24.00;64.00;;;;;;6340507;22;20165;-85
2023/09/02 02:03:33;;;;;;;0.30;0.30;;;23.90;64.00;;;;;;6341228;22;20215;-85
2023/09/02 02:06:03;;;;;;;0.40;0.40;;;23.90;64.00;;;;;;6339360;22;20214;-86
2023/09/02 02:08:38;;;;;;;0.30;0.30;;;23.90;64.20;;;;;;6342128;22;20161;-89
2023/09/02 02:11:08;;;;;;;1.75;1.10;;;23.90;64.30;;;;;;6338268;22;20172;-84
2023/09/02 02:13:38;;;;;;;0.40;0.40;;;23.90;64.30;;;;;;6340396;22;20188;-88
2023/09/02 02:16:07;;;;;;;0.70;0.70;;;23.90;64.50;;;;;;6340159;22;20153;-89
2023/09/02 02:18:35;;;;;;;0.40;0.40;;;23.90;64.70;;;;;;6340635;22;20164;-86
2023/09/02 02:21:05;;;;;;;0.20;0.20;;;23.90;64.60;;;;;;6311796;22;20164;-87
2023/09/02 02:23:34;;;;;;;0.73;0.65;;;23.90;64.60;;;;;;6313915;22;20188;-87
2023/09/02 02:26:06;;;;;;;0.40;0.40;;;23.90;64.70;;;;;;6340120;22;20179;-85
2023/09/02 02:28:36;;;;;;;1.13;1.00;;;23.90;64.70;;;;;;6340350;22;20496;-88
2023/09/02 02:31:06;;;;;;;0.35;0.35;;;23.90;64.60;;;;;;6338824;22;20243;-86
2023/09/02 02:33:36;;;;;;;0.20;0.20;;;23.90;64.70;;;;;;6340871;22;20168;-85
2023/09/02 02:36:05;;;;;;;0.30;0.30;;;23.90;64.60;;;;;;6338037;22;20164;-86
2023/09/02 02:38:34;;;;;;;0.40;0.40;;;23.90;64.50;;;;;;6340597;22;20168;-87
2023/09/02 02:41:02;;;;;;;0.43;0.43;;;24.00;64.60;;;;;;6337938;22;20508;-86
2023/09/02 02:43:31;;;;;;;0.40;0.40;;;24.00;64.60;;;;;;6340210;22;20219;-86
2023/09/02 02:45:59;;;;;;;0.30;0.30;;;24.00;64.70;;;;;;6339103;22;20703;-86
2023/09/02 02:48:30;;;;;;;0.40;0.40;;;24.00;64.70;;;;;;6339518;22;20170;-88
2023/09/02 02:51:01;;;;;;;0.20;0.20;;;24.00;64.80;;;;;;6338071;22;20164;-87
2023/09/02 02:53:29;;;;;;;2.13;0.40;;;24.00;64.90;;;;;;6338399;22;20207;-86
2023/09/02 02:56:01;;;;;;;0.43;0.43;;;24.00;64.90;;;;;;6338616;22;20173;-87
2023/09/02 02:58:29;;;;;;;1.27;0.60;;;24.00;65.80;;;;;;6338437;22;20168;-89
2023/09/02 03:01:04;;;;;;;0.35;0.35;;;24.00;65.20;;;;;;6336821;22;20239;-87
2023/09/02 03:03:36;;;;;;;0.30;0.30;;;23.90;64.90;;;;;;6337792;22;20164;-88
2023/09/02 03:06:05;;;;;;;0.43;0.43;;;23.90;64.90;;;;;;6336891;22;20149;-86
2023/09/02 03:08:36;;;;;;;2.17;1.25;;;24.00;64.70;;;;;;6338795;22;20173;-89
2023/09/02 03:11:06;;;;;;;0.30;0.30;;;24.00;64.70;;;;;;6336845;22;20157;-86
2023/09/02 03:13:35;;;;;;;0.45;0.45;;;24.00;64.70;;;;;;6337782;22;20160;-89
2023/09/02 03:16:04;;;;;;;0.63;0.57;;;24.00;64.40;;;;;;6336803;22;20244;-86
2023/09/02 03:18:36;;;;;;;0.20;0.20;;;24.00;64.30;;;;;;6338445;22;20194;-87
2023/09/02 03:21:07;;;;;;;0.45;0.45;;;23.90;64.20;;;;;;6336158;22;20218;-86
2023/09/02 03:23:37;;;;;;;0.30;0.30;;;23.90;64.10;;;;;;6338061;22;20164;-88
2023/09/02 03:26:09;;;;;;;2.22;0.50;;;23.90;64.00;;;;;;6337982;22;20184;-88
2023/09/02 03:28:38;;;;;;;0.30;0.30;;;23.90;64.10;;;;;;6338281;22;20164;-88
2023/09/02 03:31:07;;;;;;;0.50;0.50;;;23.90;64.10;;;;;;6336374;22;20164;-89
2023/09/02 03:33:40;;;;;;;2.63;0.80;;;23.90;64.20;;;;;;6337851;22;20491;-89
2023/09/02 03:36:09;;;;;;;0.32;0.32;;;23.80;64.50;;;;;;6336602;22;20203;-88
2023/09/02 03:38:39;;;;;;;0.30;0.30;;;23.80;64.40;;;;;;6339089;22;20168;-89
2023/09/02 03:41:12;;;;;;;0.40;0.40;;;23.80;64.30;;;;;;6336712;22;20219;-90
2023/09/02 03:43:40;;;;;;;0.32;0.32;;;23.80;64.70;;;;;;6338726;22;20170;-88
2023/09/02 03:46:09;;;;;;;0.60;0.45;;;23.80;64.70;;;;;;6336396;22;20218;-86
2023/09/02 03:48:42;;;;;;;0.43;0.43;;;23.80;64.70;;;;;;6337650;22;20165;-89
2023/09/02 03:51:16;;;;;;;0.68;0.68;;;23.70;64.90;;;;;;6336846;22;20918;-85
2023/09/02 03:53:45;;;;;;;0.30;0.30;;;23.80;64.80;;;;;;6338185;22;20160;-88
2023/09/02 03:56:13;;;;;;;0.30;0.30;;;23.80;64.90;;;;;;6336144;22;20176;-87
2023/09/02 03:58:42;;;;;;;0.43;0.43;;;23.70;65.10;;;;;;6338088;22;20164;-87
2023/09/02 04:01:11;;;;;;;0.30;0.30;;;23.80;65.10;;;;;;6339053;22;20160;-87
2023/09/02 04:03:42;;;;;;;0.55;0.43;;;23.80;65.10;;;;;;6339632;22;20668;-87
2023/09/02 04:06:10;;;;;;;1.60;0.88;;;23.80;65.10;;;;;;6338970;22;20269;-87
2023/09/02 04:08:39;;;;;;;0.43;0.40;;;23.70;65.00;;;;;;6339414;22;20164;-88
2023/09/02 04:11:07;;;;;;;0.30;0.30;;;23.80;65.00;;;;;;6338473;22;20165;-87
2023/09/02 04:13:36;;;;;;;0.20;0.20;;;23.70;65.20;;;;;;6340055;22;20244;-87
2023/09/02 04:16:05;;;;;;;0.50;0.50;;;23.70;65.20;;;;;;6338151;22;20164;-83
2023/09/02 04:18:35;;;;;;;0.43;0.43;;;23.80;65.30;;;;;;6313391;22;20156;-87
2023/09/02 04:21:08;;;;;;;0.35;0.35;;;23.80;65.40;;;;;;6338162;22;20164;-87
2023/09/02 04:23:37;;;;;;;0.30;0.30;;;23.80;65.60;;;;;;6339601;22;20531;-86
2023/09/02 04:26:06;;;;;;;0.57;0.57;;;23.80;65.50;;;;;;6339124;22;20202;-85
2023/09/02 04:28:34;;;;;;;1.33;0.60;;;23.80;65.60;;;;;;6337013;22;20167;-90
2023/09/02 04:31:06;;;;;;;1.13;1.08;;;23.80;65.80;;;;;;6338584;22;20522;-85
2023/09/02 04:33:35;;;;;;;0.20;0.20;;;23.80;65.70;;;;;;6340106;22;20191;-87
2023/09/02 04:36:05;;;;;;;0.68;0.50;;;23.80;65.80;;;;;;6338447;22;20214;-86
2023/09/02 04:38:34;;;;;;;0.40;0.40;;;23.80;65.60;;;;;;6338979;22;20192;-87
2023/09/02 04:41:04;;;;;;;0.65;0.65;;;23.90;65.90;;;;;;6337884;22;20171;-86
2023/09/02 04:43:33;;;;;;;0.22;0.22;;;23.90;65.90;;;;;;6339616;22;20184;-87
2023/09/02 04:46:02;;;;;;;0.65;0.65;;;23.90;65.90;;;;;;6338101;22;20196;-86
2023/09/02 04:48:31;;;;;;;0.82;0.57;;;23.90;66.10;;;;;;6339538;22;20224;-87
2023/09/02 04:51:03;;;;;;;0.50;0.50;;;23.90;66.20;;;;;;6338441;22;20203;-87
2023/09/02 04:53:33;;;;;;;0.45;0.45;;;23.90;66.50;;;;;;6339131;22;20163;-87
2023/09/02 04:56:06;;;;;;;0.40;0.40;;;23.90;66.50;;;;;;6338138;22;20556;-87
2023/09/02 04:58:35;;;;;;;0.28;0.28;;;23.90;66.50;;;;;;6339703;22;20184;-86
2023/09/02 05:01:10;;;;;;;0.40;0.40;;;24.00;66.40;;;;;;6338110;22;20243;-86
2023/09/02 05:03:39;;;;;;;0.85;0.70;;;24.00;66.50;;;;;;6338418;22;20542;-87
2023/09/02 05:06:10;;;;;;;0.40;0.40;;;24.00;66.30;;;;;;6337517;22;20267;-85
2023/09/02 05:08:40;;;;;;;0.40;0.40;;;24.10;66.30;;;;;;6338136;22;20161;-88
2023/09/02 05:11:09;;;;;;;0.55;0.55;;;24.20;66.30;;;;;;6338888;22;20168;-86
2023/09/02 05:13:38;;;;;;;0.52;0.32;;;24.20;66.40;;;;;;6339167;22;20160;-87
2023/09/02 05:16:06;;;;;;;0.65;0.50;;;24.20;66.10;;;;;;6337814;22;20164;-83
2023/09/02 05:18:35;;;;;;;0.73;0.35;;;24.30;66.10;;;;;;6338926;22;20164;-86
2023/09/02 05:21:04;;;;;;;0.95;0.52;;;24.30;66.00;;;;;;6337696;22;20248;-84
2023/09/02 05:23:33;;;;;;;0.40;0.40;;;24.40;65.90;;;;;;6338252;22;20169;-85
2023/09/02 05:26:03;;;;;;;0.30;0.30;;;24.50;65.80;;;;;;6337982;22;20233;-84
2023/09/02 05:28:32;;;;;;;0.88;0.65;;;24.50;65.70;;;;;;6338851;22;20184;-87
2023/09/02 05:31:01;;;;;;;0.40;0.40;;;24.50;65.50;;;;;;6338155;22;20172;-86
2023/09/02 05:33:31;;;;;;;0.65;0.65;;;24.60;65.50;;;;;;6338334;22;20167;-86
2023/09/02 05:36:00;;;;;;;0.38;0.32;;;24.70;66.10;;;;;;6337646;22;20172;-85
2023/09/02 05:38:28;;;;;;;0.45;0.40;;;24.70;65.00;;;;;;6339108;22;20167;-86
2023/09/02 05:40:57;;;;;;;0.68;0.50;;;24.80;64.80;;;;;;6338295;22;20167;-84
2023/09/02 05:43:28;;;;;;;1.52;0.60;;;24.80;64.50;;;;;;6337286;22;20260;-87
2023/09/02 05:45:59;;;;;;;1.40;0.40;;;24.90;64.50;;;;;;6337775;22;20637;-85
2023/09/02 05:48:28;;;;;;;0.50;0.50;;;24.90;64.40;;;;;;6337760;22;20489;-88
2023/09/02 05:50:57;;;;;;;0.40;0.40;;;25.00;64.10;;;;;;6337835;22;20183;-85
2023/09/02 05:53:26;;;;;;;0.85;0.77;;;25.00;64.00;;;;;;6337795;22;20218;-90
2023/09/02 05:55:55;;;;;;;0.75;0.40;;;25.00;63.80;;;;;;6337291;22;20167;-85
2023/09/02 05:58:26;;;;;;;1.02;0.82;;;25.10;63.50;;;;;;6337582;22;20498;-87
2023/09/02 06:00:54;;;;;;;0.50;0.50;;;25.20;63.40;;;;;;6338410;22;20153;-90
2023/09/02 06:03:23;;;;;;;0.40;0.30;;;25.20;63.30;;;;;;6337241;22;20160;-86
2023/09/02 06:05:52;;;;;;;1.45;0.95;;;25.30;63.30;;;;;;6337743;22;20184;-86
2023/09/02 06:08:20;;;;;;;0.52;0.40;;;25.30;63.20;;;;;;6336841;22;20171;-88
2023/09/02 06:10:59;;;;;;;0.50;0.50;;;25.40;63.10;;;;;;6336015;22;20243;-87
2023/09/02 06:13:29;;;;;;;0.35;0.28;;;25.50;63.10;;;;;;6338347;22;20478;-86
2023/09/02 06:16:02;;;;;;;0.35;0.32;;;25.50;62.80;;;;;;6338268;22;20168;-88
2023/09/02 06:18:31;;;;;;;0.57;0.52;;;25.60;62.60;;;;;;6339541;22;20265;-88
2023/09/02 06:21:00;;;;;;;0.35;0.35;;;25.60;62.50;;;;;;6336464;22;20160;-85
2023/09/02 06:23:29;;;;;;;0.40;0.30;;;25.70;62.20;;;;;;6337896;22;20191;-85
2023/09/02 06:25:58;;;;;;;3.00;0.82;;;25.80;61.90;;;;;;6337069;22;20192;-86
2023/09/02 06:28:29;;;;;;;0.30;0.30;;;25.80;61.80;;;;;;6336678;22;20160;-85
2023/09/02 06:30:57;;;;;;;1.95;0.90;;;25.80;61.60;;;;;;6336194;22;20487;-85
2023/09/02 06:33:26;;;;;;;0.90;0.50;;;25.90;61.40;;;;;;6339146;22;20230;-88
2023/09/02 06:35:55;;;;;;;0.63;0.60;;;26.00;61.60;;;;;;6310488;22;20172;-85
2023/09/02 06:38:24;;;;;;;0.30;0.30;;;26.00;61.60;;;;;;6336985;22;20565;-90
2023/09/02 06:40:52;;;;;;;1.83;0.50;;;26.10;61.10;;;;;;6337799;22;20680;-84
2023/09/02 06:43:21;;;;;;;0.22;0.22;;;26.20;60.90;;;;;;6338312;22;20251;-87
2023/09/02 06:45:51;;;;;;;0.60;0.60;;;26.20;60.30;;;;;;6336946;22;20165;-87
2023/09/02 06:48:20;;;;;;;0.30;0.30;;;26.30;60.60;;;;;;6337903;22;20613;-87
2023/09/02 06:50:48;;;;;;;0.35;0.30;;;26.40;60.30;;;;;;6338195;22;20175;-86
2023/09/02 06:53:17;;;;;;;0.20;0.20;;;26.50;60.40;;;;;;6337364;22;20186;-89
2023/09/02 06:55:46;;;;;;;0.73;0.40;;;26.60;60.50;;;;;;6337937;22;20227;-88
2023/09/02 06:58:14;;;;;;;0.60;0.32;;;26.70;60.50;;;;;;6337099;22;20218;-86
2023/09/02 07:00:43;;;;;;;0.47;0.47;;;26.70;60.10;;;;;;6337652;22;20168;-90
2023/09/02 07:03:16;;;;;;;0.50;0.50;;;26.70;60.00;;;;;;6338186;22;20545;-86
2023/09/02 07:05:45;;;;;;;0.40;0.40;;;26.80;59.70;;;;;;6337945;22;20447;-87
2023/09/02 07:08:14;;;;;;;0.55;0.45;;;26.80;59.50;;;;;;6337391;22;20733;-87
2023/09/02 07:10:43;;;;;;;1.13;0.38;;;26.90;59.30;;;;;;6338314;22;20217;-89
2023/09/02 07:13:12;;;;;;;0.32;0.20;;;27.00;59.40;;;;;;6337180;22;20247;-89
2023/09/02 07:15:40;;;;;;;0.30;0.30;;;27.10;59.50;;;;;;6337950;22;20171;-88
2023/09/02 07:18:09;;;;;;;0.65;0.43;;;27.10;59.40;;;;;;6337559;22;20173;-91
2023/09/02 07:20:39;;;;;;;0.75;0.60;;;27.20;59.20;;;;;;6337739;22;20168;-87
2023/09/02 07:23:08;;;;;;;0.43;0.35;;;27.20;59.10;;;;;;6338134;22;20180;-90
2023/09/02 07:25:36;;;;;;;0.30;0.30;;;27.30;59.20;;;;;;6337090;22;20755;-87
2023/09/02 07:28:06;;;;;;;0.20;0.20;;;27.40;58.80;;;;;;6338095;22;20196;-89
2023/09/02 07:30:38;;;;;;;0.50;0.50;;;27.40;59.00;;;;;;6338724;22;20247;-86
2023/09/02 07:33:06;;;;;;;1.10;0.82;;;27.50;58.40;;;;;;6337015;22;20153;-88
2023/09/02 07:35:36;;;;;;;0.57;0.40;;;27.60;58.20;;;;;;6310413;22;20164;-88
2023/09/02 07:38:07;;;;;;;1.52;0.85;;;27.60;58.30;;;;;;6336937;22;20173;-87
2023/09/02 07:40:36;;;;;;;0.32;0.32;;;27.70;58.10;;;;;;6338162;22;20169;-85
2023/09/02 07:43:05;;;;;;;0.40;0.40;;;27.80;57.80;;;;;;6336543;22;20649;-88
2023/09/02 07:45:33;;;;;;;1.00;0.57;;;27.80;57.80;;;;;;6338176;22;20175;-87
2023/09/02 07:48:05;;;;;;;1.00;0.65;;;27.90;57.70;;;;;;6336022;22;20184;-90
2023/09/02 07:50:33;;;;;;;1.08;0.68;;;27.90;57.40;;;;;;6335881;22;20161;-84
2023/09/02 07:53:02;;;;;;;0.45;0.45;;;28.00;57.30;;;;;;6337284;22;20514;-90
2023/09/02 07:55:32;;;;;;;1.08;0.52;;;28.00;57.20;;;;;;6338711;22;20161;-85
2023/09/02 07:58:01;;;;;;;1.58;0.50;;;28.10;57.10;;;;;;6336048;22;20172;-86
2023/09/02 08:00:30;;;;;;;0.57;0.30;;;28.10;56.90;;;;;;6338138;22;20168;-87
2023/09/02 08:02:59;;;;;;;0.52;0.52;;;28.20;56.80;;;;;;6336367;22;20608;-88
2023/09/02 08:05:31;;;;;;;0.20;0.20;;;28.20;56.90;;;;;;6337165;22;20161;-88
2023/09/02 08:07:59;;;;;;;0.75;0.40;;;28.20;56.60;;;;;;6336396;22;20267;-90
2023/09/02 08:10:28;;;;;;;3.60;1.30;;;28.30;56.60;;;;;;6338447;22;20160;-88
2023/09/02 08:12:59;;;;;;;3.33;0.40;;;28.30;56.20;;;;;;6336986;22;20164;-88
2023/09/02 08:15:28;;;;;;;0.63;0.35;;;28.40;56.10;;;;;;6338041;22;20597;-90
2023/09/02 08:17:57;;;;;;;0.65;0.65;;;28.40;56.10;;;;;;6336526;22;20168;-89
2023/09/02 08:20:27;;;;;;;0.50;0.50;;;28.40;56.30;;;;;;6336781;22;20164;-86
2023/09/02 08:22:55;;;;;;;0.40;0.40;;;28.50;56.30;;;;;;6310865;22;20564;-88
2023/09/02 08:25:25;;;;;;;0.25;0.25;;;28.50;56.20;;;;;;6339349;22;20206;-89
2023/09/02 08:27:54;;;;;;;2.05;0.50;;;28.60;56.10;;;;;;6337781;22;20534;-90
2023/09/02 08:30:24;;;;;;;0.45;0.45;;;28.70;55.50;;;;;;6339046;22;20171;-91
2023/09/02 08:32:52;;;;;;;0.40;0.40;;;28.70;55.60;;;;;;6337334;22;20494;-88
2023/09/02 08:35:21;;;;;;;0.47;0.47;;;28.70;55.20;;;;;;6336844;22;20165;-86
2023/09/02 08:37:51;;;;;;;0.63;0.30;;;28.70;55.20;;;;;;6337512;22;20880;-88
2023/09/02 08:40:20;;;;;;;0.40;0.40;;;28.80;55.00;;;;;;6336363;22;20507;-86
2023/09/02 08:42:50;;;;;;;1.02;0.80;;;28.90;54.80;;;;;;6336948;22;20189;-88
2023/09/02 08:45:22;;;;;;;0.40;0.40;;;28.90;54.40;;;;;;6338764;22;20661;-89
2023/09/02 08:48:00;;;;;;;1.15;0.60;;;29.00;54.70;;;;;;6310533;22;20968;-88
2023/09/02 08:50:30;;;;;;;0.28;0.28;;;28.90;54.30;;;;;;6339321;22;20210;-88
2023/09/02 08:52:59;;;;;;;0.30;0.30;;;29.00;54.50;;;;;;6339543;22;20189;-89
2023/09/02 08:55:30;;;;;;;0.57;0.50;;;29.00;54.30;;;;;;6340233;22;20165;-87
2023/09/02 08:58:00;;;;;;;0.30;0.30;;;29.10;54.40;;;;;;6337272;22;20159;-88
2023/09/02 09:00:29;;;;;;;0.40;0.40;;;29.10;54.20;;;;;;6342492;22;20215;-91
2023/09/02 09:02:59;;;;;;;0.30;0.30;;;29.20;53.70;;;;;;6331814;22;20169;-89
2023/09/02 09:05:28;;;;;;;0.40;0.35;;;29.20;53.60;;;;;;6362058;22;20153;-88
2023/09/02 09:07:58;;;;;;;0.43;0.43;;;29.20;53.60;;;;;;6359361;22;20234;-88
2023/09/02 09:10:27;;;;;;;1.20;1.05;;;29.30;53.30;;;;;;6360444;22;20157;-88
2023/09/02 09:12:57;;;;;;;0.90;0.52;;;29.30;53.10;;;;;;6360419;22;20172;-88
2023/09/02 09:15:26;;;;;;;0.50;0.50;;;29.30;52.80;;;;;;6361303;22;20169;-92
2023/09/02 09:17:55;;;;;;;0.30;0.30;;;29.40;52.80;;;;;;6345133;22;20169;-87
2023/09/02 09:20:25;;;;;;;0.43;0.30;;;29.50;52.70;;;;;;6353670;22;20156;-91
2023/09/02 09:22:54;;;;;;;0.60;0.50;;;29.50;52.30;;;;;;6352515;22;20557;-87
2023/09/02 09:25:22;;;;;;;1.48;1.00;;;29.50;52.00;;;;;;6343452;22;20231;-85
2023/09/02 09:27:51;;;;;;;1.17;0.32;;;29.60;52.30;;;;;;6345044;22;20199;-88
2023/09/02 09:30:30;;;;;;;0.47;0.47;;;29.60;51.80;;;;;;6340725;22;20573;-86
2023/09/02 09:33:01;;;;;;;0.52;0.43;;;29.60;51.50;;;;;;6338579;22;20221;-88
2023/09/02 09:35:31;;;;;;;0.30;0.30;;;29.60;51.30;;;;;;6339493;22;20546;-87
2023/09/02 09:38:00;;;;;;;0.65;0.32;;;29.70;51.70;;;;;;6337709;22;20176;-88
2023/09/02 09:40:32;;;;;;;1.25;0.45;;;29.70;51.30;;;;;;6336856;22;20165;-86
2023/09/02 09:43:02;;;;;;;0.60;0.60;;;29.80;51.30;;;;;;6337483;22;20244;-87
2023/09/02 09:45:31;;;;;;;0.30;0.30;;;29.90;51.60;;;;;;6337673;22;20153;-86
2023/09/02 09:48:10;;;;;;;0.77;0.57;;;29.90;51.30;;;;;;6337599;22;20199;-88
2023/09/02 09:50:41;;;;;;;0.30;0.30;;;30.00;51.50;;;;;;6337885;22;20160;-88
2023/09/02 09:53:09;;;;;;;0.60;0.60;;;30.00;51.10;;;;;;6310945;22;20613;-91
2023/09/02 09:55:39;;;;;;;0.40;0.25;;;30.10;50.70;;;;;;6339019;22;20164;-88
2023/09/02 09:58:07;;;;;;;0.30;0.30;;;30.10;50.50;;;;;;6337446;22;20195;-89
2023/09/02 10:00:36;;;;;;;0.65;0.65;;;30.20;50.80;;;;;;6339211;22;20240;-91
2023/09/02 10:03:06;;;;;;;0.32;0.32;;;30.30;50.70;;;;;;6338685;22;20176;-89
2023/09/02 10:05:35;;;;;;;1.15;0.40;;;30.30;50.90;;;;;;6339037;22;20175;-87
2023/09/02 10:08:09;;;;;;;0.68;0.52;;;30.30;50.40;;;;;;6337677;22;20514;-89
2023/09/02 10:10:40;;;;;;;0.30;0.30;;;30.30;50.50;;;;;;6311146;22;20172;-88
2023/09/02 10:13:09;;;;;;;0.30;0.30;;;30.40;50.50;;;;;;6336533;22;20164;-88
2023/09/02 10:15:37;;;;;;;0.50;0.28;;;30.50;50.50;;;;;;6338494;22;20493;-91
2023/09/02 10:18:06;;;;;;;0.20;0.20;;;30.50;50.60;;;;;;6338675;22;20180;-90
2023/09/02 10:20:38;;;;;;;0.50;0.35;;;30.60;50.60;;;;;;6311705;22;20176;-86
2023/09/02 10:23:11;;;;;;;0.28;0.28;;;30.60;50.40;;;;;;6338722;22;20179;-91
2023/09/02 10:25:50;;;;;;;0.30;0.30;;;30.60;50.30;;;;;;6339251;22;20160;-90
2023/09/02 10:28:25;;;;;;;0.30;0.30;;;30.60;50.60;;;;;;6338868;22;20515;-88
2023/09/02 10:30:59;;;;;;;0.38;0.38;;;30.60;50.10;;;;;;6337759;22;20817;-88
2023/09/02 10:33:37;;;;;;;0.40;0.40;;;30.70;50.10;;;;;;6338579;22;20175;-89
2023/09/02 10:36:08;;;;;;;1.25;1.15;;;30.60;50.10;;;;;;6336896;22;20240;-88
2023/09/02 10:38:43;;;;;;;1.02;0.45;;;30.70;50.30;;;;;;6338828;22;20191;-89
2023/09/02 10:41:13;;;;;;;0.70;0.52;;;30.70;50.50;;;;;;6337454;22;20187;-90
2023/09/02 10:43:45;;;;;;;0.38;0.38;;;30.70;50.10;;;;;;6339000;22;20161;-89
2023/09/02 10:46:14;;;;;;;0.45;0.45;;;30.70;50.20;;;;;;6337930;22;20191;-89
2023/09/02 10:48:46;;;;;;;0.38;0.35;;;30.70;50.20;;;;;;6337952;22;20188;-89
2023/09/02 10:51:15;;;;;;;0.65;0.45;;;30.70;50.40;;;;;;6338300;22;20153;-90
2023/09/02 10:53:59;;;;;;;0.30;0.30;;;30.70;51.10;;;;;;6339771;22;20164;-89
2023/09/02 10:56:30;;;;;;;1.17;0.75;;;30.60;50.20;;;;;;6337660;22;20164;-89
2023/09/02 10:59:00;;;;;;;0.30;0.28;;;30.60;50.20;;;;;;6339110;22;20244;-89
2023/09/02 11:01:43;;;;;;;0.30;0.30;;;30.60;50.20;;;;;;6336799;22;20168;-89
2023/09/02 11:04:16;;;;;;;0.50;0.35;;;30.50;50.30;;;;;;6338070;22;20160;-88
2023/09/02 11:07:24;;;;;;;0.47;0.47;;;30.50;50.40;;;;;;6338616;22;20240;-89
2023/09/02 11:09:55;;;;;;;0.30;0.30;;;30.50;50.40;;;;;;6338058;22;20515;-90
2023/09/02 11:12:24;;;;;;;0.43;0.35;;;30.50;50.60;;;;;;6337589;22;20164;-90
2023/09/02 11:15:18;;;;;;;0.45;0.43;;;30.50;50.50;;;;;;6339408;22;20164;-91
2023/09/02 11:17:47;;;;;;;3.95;1.65;;;30.60;50.70;;;;;;6335608;22;20165;-92
2023/09/02 11:20:18;;;;;;;1.08;0.30;;;30.60;50.80;;;;;;6336648;22;20175;-88
2023/09/02 11:22:53;;;;;;;0.43;0.43;;;30.70;50.60;;;;;;6336333;22;20175;-89
2023/09/02 11:25:41;;;;;;;0.70;0.40;;;30.70;51.00;;;;;;6338189;22;20152;-89
2023/09/02 11:28:26;;;;;;;0.57;0.43;;;30.80;50.50;;;;;;6312917;22;20161;-93
2023/09/02 11:31:09;;;;;;;0.47;0.47;;;30.80;50.50;;;;;;6338057;22;20242;-91
2023/09/02 11:33:39;;;;;;;1.88;0.90;;;30.90;50.40;;;;;;6338157;22;20168;-89
2023/09/02 11:36:11;;;;;;;0.30;0.30;;;30.90;50.40;;;;;;6337729;22;20160;-91
2023/09/02 11:38:40;;;;;;;0.30;0.30;;;30.90;50.20;;;;;;6339082;22;20601;-90
2023/09/02 11:41:19;;;;;;;0.28;0.20;;;31.00;50.10;;;;;;6335549;22;20194;-89
2023/09/02 11:43:53;;;;;;;0.35;0.28;;;31.10;49.80;;;;;;6337524;22;20184;-89
2023/09/02 11:46:22;;;;;;;0.55;0.43;;;31.20;49.60;;;;;;6336001;22;20165;-90
2023/09/02 11:48:50;;;;;;;2.17;0.30;;;31.20;49.70;;;;;;6338176;22;20184;-88
2023/09/02 11:51:20;;;;;;;0.60;0.60;;;31.40;50.00;;;;;;6337143;22;20978;-90
2023/09/02 11:53:48;;;;;;;0.30;0.30;;;31.50;50.10;;;;;;6337794;22;20616;-89
2023/09/02 11:56:18;;;;;;;0.63;0.47;;;31.50;49.90;;;;;;6337408;22;20631;-86
2023/09/02 11:58:53;;;;;;;1.05;0.68;;;31.70;49.20;;;;;;6336616;22;20160;-90
2023/09/02 12:01:22;;;;;;;1.10;0.75;;;31.70;48.50;;;;;;6338775;22;20164;-91
2023/09/02 12:03:50;;;;;;;0.50;0.50;;;31.70;48.30;;;;;;6338672;22;20160;-89
2023/09/02 12:06:19;;;;;;;0.30;0.30;;;31.70;48.50;;;;;;6338112;22;20883;-89
2023/09/02 12:08:50;;;;;;;0.30;0.30;;;31.70;48.60;;;;;;6338702;22;20184;-89
2023/09/02 12:11:20;;;;;;;14.52;1.02;;;31.70;48.90;;;;;;6336356;22;20164;-90
2023/09/02 12:13:50;;;;;;;0.30;0.30;;;31.70;48.80;;;;;;6339176;22;20218;-90
2023/09/02 12:16:19;;;;;;;0.35;0.32;;;31.80;48.90;;;;;;6337046;22;20171;-88
2023/09/02 12:18:50;;;;;;;0.30;0.30;;;31.80;48.70;;;;;;6337956;22;20157;-88
2023/09/02 12:21:19;;;;;;;0.40;0.40;;;31.90;48.90;;;;;;6337659;22;20881;-89
2023/09/02 12:23:48;;;;;;;1.17;0.50;;;32.00;48.50;;;;;;6313769;22;20239;-90
2023/09/02 12:26:16;;;;;;;0.47;0.47;;;32.10;48.40;;;;;;6338609;22;20186;-87
2023/09/02 12:28:50;;;;;;;0.55;0.47;;;32.20;48.40;;;;;;6312835;22;20165;-88
2023/09/02 12:31:20;;;;;;;0.50;0.40;;;32.30;48.30;;;;;;6338806;22;20157;-92
2023/09/02 12:33:51;;;;;;;0.52;0.45;;;32.40;48.30;;;;;;6340569;22;20157;-88
2023/09/02 12:36:20;;;;;;;0.38;0.38;;;32.50;48.10;;;;;;6337062;22;20221;-86
2023/09/02 12:38:52;;;;;;;1.10;0.52;;;32.60;48.00;;;;;;6340078;22;20239;-89
2023/09/02 12:41:21;;;;;;;0.35;0.35;;;32.60;48.20;;;;;;6311226;22;20263;-89
2023/09/02 12:43:51;;;;;;;0.65;0.63;;;32.70;47.70;;;;;;6340299;22;20609;-90
2023/09/02 12:46:22;;;;;;;0.98;0.43;;;32.70;47.80;;;;;;6338337;22;20180;-88
2023/09/02 12:48:51;;;;;;;0.43;0.35;;;32.90;47.60;;;;;;6338454;22;20248;-90
2023/09/02 12:51:28;;;;;;;0.38;0.38;;;32.80;47.50;;;;;;6336630;22;20175;-89
2023/09/02 12:53:58;;;;;;;0.63;0.63;;;32.80;47.30;;;;;;6340665;22;20186;-89
2023/09/02 12:56:29;;;;;;;0.32;0.32;;;32.80;46.80;;;;;;6339400;22;20616;-90
2023/09/02 12:58:59;;;;;;;0.63;0.40;;;32.90;46.80;;;;;;6340056;22;20202;-89
2023/09/02 13:01:27;;;;;;;0.73;0.38;;;33.00;47.10;;;;;;6339199;22;20175;-90
2023/09/02 13:03:56;;;;;;;0.20;0.20;;;33.00;47.30;;;;;;6339937;22;20160;-90